Caledon, Canada
Current Conditions -  °F | °C
As of 7:00 PM on Wednesday 22 Oct 2014 (Local Time) from CYYZ Reporting Station
Few Clouds Few Clouds  
Wind Chill: 50°   Ceiling: Unl
Heat Index: 50°   Visibility: 15mi
Dew Point: 39°   Wind: 13mph
Humidity: 66%   Direction: 340°NNW
Pressure: 30.23"   Gusts: NA
Location:  43.87°N, 80°W
Report Text: CYYZ 222300Z 34011KT 15SM FEW040 10/04 A3023 RMK SC1 SC TR SLP243
Loading
Personal Weather Stations






























Interactive Weather Map
Tropical Storm Tracking
New forecast layout! Learn more

10-Day Weather Forecast

Advertisements
Track Severe Weather on mobile